sensor_id;sensor_type;location;lat;lon;timestamp;P1;durP1;ratioP1;P2;durP2;ratioP2
73283;SDS011;61519;60.050;18.582;2023-08-31T00:00:28;3.42;;;1.30;;
73283;SDS011;61519;60.050;18.582;2023-08-31T00:02:54;5.28;;;1.30;;
73283;SDS011;61519;60.050;18.582;2023-08-31T00:05:20;3.07;;;1.47;;
73283;SDS011;61519;60.050;18.582;2023-08-31T00:07:45;4.30;;;1.30;;
73283;SDS011;61519;60.050;18.582;2023-08-31T00:10:11;3.25;;;1.40;;
73283;SDS011;61519;60.050;18.582;2023-08-31T00:12:37;3.53;;;1.50;;
73283;SDS011;61519;60.050;18.582;2023-08-31T00:15:03;5.13;;;1.48;;
73283;SDS011;61519;60.050;18.582;2023-08-31T00:17:29;3.93;;;1.37;;
73283;SDS011;61519;60.050;18.582;2023-08-31T00:19:55;3.40;;;1.75;;
73283;SDS011;61519;60.050;18.582;2023-08-31T00:22:20;3.40;;;1.57;;
73283;SDS011;61519;60.050;18.582;2023-08-31T00:24:46;3.10;;;1.60;;
73283;SDS011;61519;60.050;18.582;2023-08-31T00:27:11;6.50;;;1.35;;
73283;SDS011;61519;60.050;18.582;2023-08-31T00:29:40;6.53;;;1.63;;
73283;SDS011;61519;60.050;18.582;2023-08-31T00:32:05;3.15;;;1.40;;
73283;SDS011;61519;60.050;18.582;2023-08-31T00:34:31;3.07;;;1.23;;
73283;SDS011;61519;60.050;18.582;2023-08-31T00:36:57;3.25;;;1.58;;
73283;SDS011;61519;60.050;18.582;2023-08-31T00:39:22;4.20;;;1.47;;
73283;SDS011;61519;60.050;18.582;2023-08-31T00:41:47;3.47;;;1.30;;
73283;SDS011;61519;60.050;18.582;2023-08-31T00:44:13;3.00;;;1.50;;
73283;SDS011;61519;60.050;18.582;2023-08-31T00:46:40;3.83;;;1.85;;
73283;SDS011;61519;60.050;18.582;2023-08-31T00:49:05;3.50;;;1.50;;
73283;SDS011;61519;60.050;18.582;2023-08-31T00:51:31;3.92;;;1.98;;
73283;SDS011;61519;60.050;18.582;2023-08-31T00:53:57;3.30;;;1.60;;
73283;SDS011;61519;60.050;18.582;2023-08-31T00:56:24;3.53;;;1.40;;
73283;SDS011;61519;60.050;18.582;2023-08-31T00:58:50;4.75;;;1.42;;
73283;SDS011;61519;60.050;18.582;2023-08-31T01:03:53;4.53;;;1.38;;
73283;SDS011;61519;60.050;18.582;2023-08-31T01:09:05;3.47;;;1.33;;
73283;SDS011;61519;60.050;18.582;2023-08-31T01:14:11;4.15;;;1.35;;
73283;SDS011;61519;60.050;18.582;2023-08-31T01:16:40;3.00;;;1.30;;
73283;SDS011;61519;60.050;18.582;2023-08-31T01:19:12;3.20;;;1.40;;
73283;SDS011;61519;60.050;18.582;2023-08-31T01:22:05;4.90;;;1.42;;
73283;SDS011;61519;60.050;18.582;2023-08-31T01:24:34;5.45;;;1.60;;
73283;SDS011;61519;60.050;18.582;2023-08-31T01:27:00;3.08;;;1.33;;
73283;SDS011;61519;60.050;18.582;2023-08-31T01:29:25;3.23;;;1.50;;
73283;SDS011;61519;60.050;18.582;2023-08-31T01:31:51;3.00;;;1.30;;
73283;SDS011;61519;60.050;18.582;2023-08-31T01:34:16;3.50;;;1.47;;
73283;SDS011;61519;60.050;18.582;2023-08-31T01:36:43;5.90;;;1.57;;
73283;SDS011;61519;60.050;18.582;2023-08-31T01:39:14;3.63;;;1.70;;
73283;SDS011;61519;60.050;18.582;2023-08-31T01:41:45;3.80;;;1.50;;
73283;SDS011;61519;60.050;18.582;2023-08-31T01:44:16;3.83;;;1.58;;
73283;SDS011;61519;60.050;18.582;2023-08-31T01:46:46;3.23;;;1.50;;
73283;SDS011;61519;60.050;18.582;2023-08-31T01:49:12;4.40;;;1.40;;
73283;SDS011;61519;60.050;18.582;2023-08-31T01:51:39;3.47;;;1.50;;
73283;SDS011;61519;60.050;18.582;2023-08-31T01:54:04;3.20;;;1.43;;
73283;SDS011;61519;60.050;18.582;2023-08-31T01:56:30;3.97;;;1.98;;
73283;SDS011;61519;60.050;18.582;2023-08-31T01:58:55;5.37;;;1.80;;
73283;SDS011;61519;60.050;18.582;2023-08-31T02:01:21;6.83;;;1.60;;
73283;SDS011;61519;60.050;18.582;2023-08-31T02:03:46;4.07;;;1.80;;
73283;SDS011;61519;60.050;18.582;2023-08-31T02:06:11;4.23;;;1.67;;
73283;SDS011;61519;60.050;18.582;2023-08-31T02:08:37;5.77;;;1.70;;
73283;SDS011;61519;60.050;18.582;2023-08-31T02:11:02;2.90;;;1.30;;
73283;SDS011;61519;60.050;18.582;2023-08-31T02:13:28;3.10;;;1.40;;
73283;SDS011;61519;60.050;18.582;2023-08-31T02:15:54;5.00;;;1.30;;
73283;SDS011;61519;60.050;18.582;2023-08-31T02:18:19;3.80;;;1.60;;
73283;SDS011;61519;60.050;18.582;2023-08-31T02:20:45;3.53;;;1.75;;
73283;SDS011;61519;60.050;18.582;2023-08-31T02:23:11;4.40;;;1.30;;
73283;SDS011;61519;60.050;18.582;2023-08-31T02:25:37;3.83;;;1.95;;
73283;SDS011;61519;60.050;18.582;2023-08-31T02:28:02;3.30;;;1.30;;
73283;SDS011;61519;60.050;18.582;2023-08-31T02:30:28;3.10;;;1.30;;
73283;SDS011;61519;60.050;18.582;2023-08-31T02:32:53;4.90;;;1.77;;
73283;SDS011;61519;60.050;18.582;2023-08-31T02:35:19;3.30;;;1.60;;
73283;SDS011;61519;60.050;18.582;2023-08-31T02:37:44;4.27;;;1.37;;
73283;SDS011;61519;60.050;18.582;2023-08-31T02:40:09;5.20;;;1.53;;
73283;SDS011;61519;60.050;18.582;2023-08-31T02:42:35;4.07;;;1.67;;
73283;SDS011;61519;60.050;18.582;2023-08-31T02:45:01;5.93;;;1.97;;
73283;SDS011;61519;60.050;18.582;2023-08-31T02:47:26;3.50;;;1.50;;
73283;SDS011;61519;60.050;18.582;2023-08-31T02:49:51;3.37;;;1.27;;
73283;SDS011;61519;60.050;18.582;2023-08-31T02:52:16;6.97;;;1.50;;
73283;SDS011;61519;60.050;18.582;2023-08-31T02:54:42;3.43;;;1.50;;
73283;SDS011;61519;60.050;18.582;2023-08-31T02:57:07;3.65;;;1.60;;
73283;SDS011;61519;60.050;18.582;2023-08-31T02:59:33;3.50;;;1.60;;
73283;SDS011;61519;60.050;18.582;2023-08-31T03:02:01;3.40;;;1.47;;
73283;SDS011;61519;60.050;18.582;2023-08-31T03:04:27;4.38;;;1.55;;
73283;SDS011;61519;60.050;18.582;2023-08-31T03:06:52;4.90;;;1.57;;
73283;SDS011;61519;60.050;18.582;2023-08-31T03:09:17;3.10;;;1.30;;
73283;SDS011;61519;60.050;18.582;2023-08-31T03:11:44;3.70;;;1.45;;
73283;SDS011;61519;60.050;18.582;2023-08-31T03:14:10;3.43;;;1.47;;
73283;SDS011;61519;60.050;18.582;2023-08-31T03:16:35;3.58;;;1.60;;
73283;SDS011;61519;60.050;18.582;2023-08-31T03:19:01;3.42;;;1.70;;
73283;SDS011;61519;60.050;18.582;2023-08-31T03:21:26;3.70;;;1.47;;
73283;SDS011;61519;60.050;18.582;2023-08-31T03:23:51;3.60;;;1.70;;
73283;SDS011;61519;60.050;18.582;2023-08-31T03:26:17;3.47;;;1.50;;
73283;SDS011;61519;60.050;18.582;2023-08-31T03:28:42;3.50;;;1.40;;
73283;SDS011;61519;60.050;18.582;2023-08-31T03:31:07;6.70;;;1.45;;
73283;SDS011;61519;60.050;18.582;2023-08-31T03:33:33;3.43;;;1.43;;
73283;SDS011;61519;60.050;18.582;2023-08-31T03:36:02;3.13;;;1.50;;
73283;SDS011;61519;60.050;18.582;2023-08-31T03:38:29;2.88;;;1.30;;
73283;SDS011;61519;60.050;18.582;2023-08-31T03:40:57;3.60;;;1.20;;
73283;SDS011;61519;60.050;18.582;2023-08-31T03:43:23;4.38;;;1.50;;
73283;SDS011;61519;60.050;18.582;2023-08-31T03:45:48;3.33;;;1.38;;
73283;SDS011;61519;60.050;18.582;2023-08-31T03:48:14;3.33;;;1.53;;
73283;SDS011;61519;60.050;18.582;2023-08-31T03:50:39;3.70;;;1.42;;
73283;SDS011;61519;60.050;18.582;2023-08-31T03:53:05;3.57;;;1.23;;
73283;SDS011;61519;60.050;18.582;2023-08-31T03:55:30;4.43;;;1.73;;
73283;SDS011;61519;60.050;18.582;2023-08-31T03:57:56;5.40;;;1.30;;
73283;SDS011;61519;60.050;18.582;2023-08-31T04:00:21;4.28;;;1.95;;
73283;SDS011;61519;60.050;18.582;2023-08-31T04:02:46;5.57;;;1.60;;
73283;SDS011;61519;60.050;18.582;2023-08-31T04:05:12;3.47;;;1.37;;
73283;SDS011;61519;60.050;18.582;2023-08-31T04:07:39;3.70;;;1.75;;
73283;SDS011;61519;60.050;18.582;2023-08-31T04:10:05;3.03;;;1.40;;
73283;SDS011;61519;60.050;18.582;2023-08-31T04:12:31;4.70;;;1.50;;
73283;SDS011;61519;60.050;18.582;2023-08-31T04:14:56;4.45;;;1.52;;
73283;SDS011;61519;60.050;18.582;2023-08-31T04:17:22;4.70;;;1.60;;
73283;SDS011;61519;60.050;18.582;2023-08-31T04:19:47;5.27;;;1.70;;
73283;SDS011;61519;60.050;18.582;2023-08-31T04:22:12;3.97;;;1.87;;
73283;SDS011;61519;60.050;18.582;2023-08-31T04:24:37;4.97;;;1.60;;
73283;SDS011;61519;60.050;18.582;2023-08-31T04:27:03;3.20;;;1.40;;
73283;SDS011;61519;60.050;18.582;2023-08-31T04:29:28;3.72;;;1.83;;
73283;SDS011;61519;60.050;18.582;2023-08-31T04:31:54;4.60;;;1.30;;
73283;SDS011;61519;60.050;18.582;2023-08-31T04:34:19;3.07;;;1.30;;
73283;SDS011;61519;60.050;18.582;2023-08-31T04:36:44;5.37;;;1.93;;
73283;SDS011;61519;60.050;18.582;2023-08-31T04:39:10;3.53;;;1.60;;
73283;SDS011;61519;60.050;18.582;2023-08-31T04:41:36;3.83;;;1.87;;
73283;SDS011;61519;60.050;18.582;2023-08-31T04:44:01;3.70;;;1.60;;
73283;SDS011;61519;60.050;18.582;2023-08-31T04:46:26;4.57;;;1.77;;
73283;SDS011;61519;60.050;18.582;2023-08-31T04:48:52;3.40;;;1.63;;
73283;SDS011;61519;60.050;18.582;2023-08-31T04:51:34;3.90;;;1.60;;
73283;SDS011;61519;60.050;18.582;2023-08-31T04:54:00;4.50;;;1.92;;
73283;SDS011;61519;60.050;18.582;2023-08-31T04:56:30;3.27;;;1.57;;
73283;SDS011;61519;60.050;18.582;2023-08-31T04:58:59;4.07;;;2.00;;
73283;SDS011;61519;60.050;18.582;2023-08-31T05:01:25;4.73;;;1.43;;
73283;SDS011;61519;60.050;18.582;2023-08-31T05:03:50;5.20;;;2.10;;
73283;SDS011;61519;60.050;18.582;2023-08-31T05:06:15;4.35;;;2.10;;
73283;SDS011;61519;60.050;18.582;2023-08-31T05:08:41;4.68;;;2.92;;
73283;SDS011;61519;60.050;18.582;2023-08-31T05:11:06;3.97;;;1.97;;
73283;SDS011;61519;60.050;18.582;2023-08-31T05:13:32;4.53;;;2.40;;
73283;SDS011;61519;60.050;18.582;2023-08-31T05:15:57;5.70;;;2.73;;
73283;SDS011;61519;60.050;18.582;2023-08-31T05:18:22;4.37;;;2.27;;
73283;SDS011;61519;60.050;18.582;2023-08-31T05:20:47;4.00;;;1.97;;
73283;SDS011;61519;60.050;18.582;2023-08-31T05:23:14;6.68;;;2.53;;
73283;SDS011;61519;60.050;18.582;2023-08-31T05:25:43;5.35;;;2.20;;
73283;SDS011;61519;60.050;18.582;2023-08-31T05:28:09;5.90;;;2.20;;
73283;SDS011;61519;60.050;18.582;2023-08-31T05:30:34;3.73;;;1.83;;
73283;SDS011;61519;60.050;18.582;2023-08-31T05:33:00;4.07;;;2.15;;
73283;SDS011;61519;60.050;18.582;2023-08-31T05:35:25;3.80;;;1.70;;
73283;SDS011;61519;60.050;18.582;2023-08-31T05:37:51;4.75;;;1.60;;
73283;SDS011;61519;60.050;18.582;2023-08-31T05:40:16;3.60;;;1.60;;
73283;SDS011;61519;60.050;18.582;2023-08-31T05:42:43;4.40;;;1.70;;
73283;SDS011;61519;60.050;18.582;2023-08-31T05:45:08;3.20;;;1.70;;
73283;SDS011;61519;60.050;18.582;2023-08-31T05:47:34;3.90;;;1.80;;
73283;SDS011;61519;60.050;18.582;2023-08-31T05:50:00;4.15;;;2.10;;
73283;SDS011;61519;60.050;18.582;2023-08-31T05:52:26;3.87;;;2.03;;
73283;SDS011;61519;60.050;18.582;2023-08-31T05:54:51;4.57;;;2.38;;
73283;SDS011;61519;60.050;18.582;2023-08-31T05:57:18;5.00;;;1.80;;
73283;SDS011;61519;60.050;18.582;2023-08-31T05:59:44;3.95;;;1.83;;
73283;SDS011;61519;60.050;18.582;2023-08-31T06:02:09;3.80;;;2.10;;
73283;SDS011;61519;60.050;18.582;2023-08-31T06:04:36;4.00;;;2.03;;
73283;SDS011;61519;60.050;18.582;2023-08-31T06:07:01;3.60;;;1.92;;
73283;SDS011;61519;60.050;18.582;2023-08-31T06:09:27;4.37;;;2.00;;
73283;SDS011;61519;60.050;18.582;2023-08-31T06:11:52;5.33;;;1.93;;
73283;SDS011;61519;60.050;18.582;2023-08-31T06:14:17;6.20;;;1.60;;
73283;SDS011;61519;60.050;18.582;2023-08-31T06:16:43;5.73;;;2.43;;
73283;SDS011;61519;60.050;18.582;2023-08-31T06:19:08;4.03;;;1.80;;
73283;SDS011;61519;60.050;18.582;2023-08-31T06:21:34;3.57;;;2.10;;
73283;SDS011;61519;60.050;18.582;2023-08-31T06:24:00;3.20;;;1.70;;
73283;SDS011;61519;60.050;18.582;2023-08-31T06:26:25;3.10;;;1.50;;
73283;SDS011;61519;60.050;18.582;2023-08-31T06:28:50;3.30;;;1.50;;
73283;SDS011;61519;60.050;18.582;2023-08-31T06:31:16;3.70;;;1.47;;
73283;SDS011;61519;60.050;18.582;2023-08-31T06:33:41;3.60;;;1.53;;
73283;SDS011;61519;60.050;18.582;2023-08-31T06:36:06;6.07;;;1.70;;
73283;SDS011;61519;60.050;18.582;2023-08-31T06:38:32;2.73;;;1.53;;
73283;SDS011;61519;60.050;18.582;2023-08-31T06:40:57;4.07;;;1.92;;
73283;SDS011;61519;60.050;18.582;2023-08-31T06:43:24;3.80;;;1.48;;
73283;SDS011;61519;60.050;18.582;2023-08-31T06:45:51;2.67;;;1.20;;
73283;SDS011;61519;60.050;18.582;2023-08-31T06:48:17;2.97;;;1.45;;
73283;SDS011;61519;60.050;18.582;2023-08-31T06:50:43;3.00;;;1.60;;
73283;SDS011;61519;60.050;18.582;2023-08-31T06:53:08;3.53;;;1.80;;
73283;SDS011;61519;60.050;18.582;2023-08-31T06:55:34;3.05;;;1.30;;
73283;SDS011;61519;60.050;18.582;2023-08-31T06:58:00;3.90;;;1.57;;
73283;SDS011;61519;60.050;18.582;2023-08-31T07:00:27;3.03;;;1.30;;
73283;SDS011;61519;60.050;18.582;2023-08-31T07:02:52;2.97;;;1.50;;
73283;SDS011;61519;60.050;18.582;2023-08-31T07:05:17;3.80;;;1.73;;
73283;SDS011;61519;60.050;18.582;2023-08-31T07:07:50;4.55;;;1.85;;
73283;SDS011;61519;60.050;18.582;2023-08-31T07:10:15;3.23;;;1.60;;
73283;SDS011;61519;60.050;18.582;2023-08-31T07:12:40;3.70;;;1.43;;
73283;SDS011;61519;60.050;18.582;2023-08-31T07:15:06;3.13;;;1.33;;
73283;SDS011;61519;60.050;18.582;2023-08-31T07:17:31;2.80;;;1.23;;
73283;SDS011;61519;60.050;18.582;2023-08-31T07:19:57;2.92;;;1.30;;
73283;SDS011;61519;60.050;18.582;2023-08-31T07:22:22;2.83;;;1.30;;
73283;SDS011;61519;60.050;18.582;2023-08-31T07:24:47;3.57;;;1.37;;
73283;SDS011;61519;60.050;18.582;2023-08-31T07:27:13;3.47;;;1.33;;
73283;SDS011;61519;60.050;18.582;2023-08-31T07:29:38;3.20;;;1.53;;
73283;SDS011;61519;60.050;18.582;2023-08-31T07:32:03;3.43;;;1.80;;
73283;SDS011;61519;60.050;18.582;2023-08-31T07:34:29;3.20;;;1.50;;
73283;SDS011;61519;60.050;18.582;2023-08-31T07:36:56;3.55;;;1.50;;
73283;SDS011;61519;60.050;18.582;2023-08-31T07:39:21;3.63;;;1.40;;
73283;SDS011;61519;60.050;18.582;2023-08-31T07:41:46;4.00;;;1.67;;
73283;SDS011;61519;60.050;18.582;2023-08-31T07:44:12;3.80;;;1.60;;
73283;SDS011;61519;60.050;18.582;2023-08-31T07:46:37;3.70;;;1.70;;
73283;SDS011;61519;60.050;18.582;2023-08-31T07:49:02;3.13;;;1.10;;
73283;SDS011;61519;60.050;18.582;2023-08-31T07:51:29;3.78;;;1.30;;
73283;SDS011;61519;60.050;18.582;2023-08-31T07:53:54;3.30;;;1.30;;
73283;SDS011;61519;60.050;18.582;2023-08-31T07:56:19;3.70;;;1.20;;
73283;SDS011;61519;60.050;18.582;2023-08-31T07:58:46;3.10;;;1.10;;
73283;SDS011;61519;60.050;18.582;2023-08-31T08:01:11;3.47;;;1.50;;
73283;SDS011;61519;60.050;18.582;2023-08-31T08:03:36;3.47;;;1.07;;
73283;SDS011;61519;60.050;18.582;2023-08-31T08:06:02;2.97;;;1.30;;
73283;SDS011;61519;60.050;18.582;2023-08-31T08:08:28;3.03;;;1.38;;
73283;SDS011;61519;60.050;18.582;2023-08-31T08:10:54;3.80;;;1.10;;
73283;SDS011;61519;60.050;18.582;2023-08-31T08:13:19;3.35;;;1.50;;
73283;SDS011;61519;60.050;18.582;2023-08-31T08:15:45;4.77;;;1.30;;
73283;SDS011;61519;60.050;18.582;2023-08-31T08:18:11;6.05;;;1.40;;
73283;SDS011;61519;60.050;18.582;2023-08-31T08:20:36;3.67;;;1.67;;
73283;SDS011;61519;60.050;18.582;2023-08-31T08:23:02;4.20;;;1.40;;
73283;SDS011;61519;60.050;18.582;2023-08-31T08:25:27;2.90;;;1.23;;
73283;SDS011;61519;60.050;18.582;2023-08-31T08:27:52;3.93;;;1.50;;
73283;SDS011;61519;60.050;18.582;2023-08-31T08:30:18;4.73;;;1.63;;
73283;SDS011;61519;60.050;18.582;2023-08-31T08:32:44;5.43;;;1.40;;
73283;SDS011;61519;60.050;18.582;2023-08-31T08:35:09;5.00;;;1.57;;
73283;SDS011;61519;60.050;18.582;2023-08-31T08:37:35;3.42;;;1.40;;
73283;SDS011;61519;60.050;18.582;2023-08-31T08:40:01;5.30;;;1.50;;
73283;SDS011;61519;60.050;18.582;2023-08-31T08:42:28;4.65;;;1.50;;
73283;SDS011;61519;60.050;18.582;2023-08-31T08:44:56;3.70;;;1.50;;
73283;SDS011;61519;60.050;18.582;2023-08-31T08:47:21;3.85;;;1.40;;
73283;SDS011;61519;60.050;18.582;2023-08-31T08:49:47;3.10;;;1.20;;
73283;SDS011;61519;60.050;18.582;2023-08-31T08:52:13;2.80;;;1.35;;
73283;SDS011;61519;60.050;18.582;2023-08-31T08:54:42;3.67;;;1.45;;
73283;SDS011;61519;60.050;18.582;2023-08-31T08:57:09;3.47;;;1.38;;
73283;SDS011;61519;60.050;18.582;2023-08-31T08:59:34;3.23;;;1.27;;
73283;SDS011;61519;60.050;18.582;2023-08-31T09:02:00;3.23;;;1.13;;
73283;SDS011;61519;60.050;18.582;2023-08-31T09:04:25;3.03;;;1.20;;
73283;SDS011;61519;60.050;18.582;2023-08-31T09:06:51;3.03;;;1.10;;
73283;SDS011;61519;60.050;18.582;2023-08-31T09:09:16;2.72;;;1.15;;
73283;SDS011;61519;60.050;18.582;2023-08-31T09:11:42;5.10;;;1.30;;
73283;SDS011;61519;60.050;18.582;2023-08-31T09:14:17;2.80;;;1.40;;
73283;SDS011;61519;60.050;18.582;2023-08-31T09:16:50;3.90;;;1.23;;
73283;SDS011;61519;60.050;18.582;2023-08-31T09:19:17;4.30;;;1.37;;
73283;SDS011;61519;60.050;18.582;2023-08-31T09:21:44;3.30;;;1.20;;
73283;SDS011;61519;60.050;18.582;2023-08-31T09:24:11;4.38;;;1.38;;
73283;SDS011;61519;60.050;18.582;2023-08-31T09:26:43;2.53;;;1.02;;
73283;SDS011;61519;60.050;18.582;2023-08-31T09:29:09;5.78;;;1.40;;
73283;SDS011;61519;60.050;18.582;2023-08-31T09:31:35;5.63;;;1.50;;
73283;SDS011;61519;60.050;18.582;2023-08-31T09:34:00;3.07;;;1.50;;
73283;SDS011;61519;60.050;18.582;2023-08-31T09:36:26;4.03;;;1.40;;
73283;SDS011;61519;60.050;18.582;2023-08-31T09:38:56;3.50;;;1.20;;
73283;SDS011;61519;60.050;18.582;2023-08-31T09:41:22;3.33;;;1.45;;
73283;SDS011;61519;60.050;18.582;2023-08-31T09:43:47;2.97;;;1.20;;
73283;SDS011;61519;60.050;18.582;2023-08-31T09:46:12;4.20;;;1.30;;
73283;SDS011;61519;60.050;18.582;2023-08-31T09:48:38;3.00;;;1.30;;
73283;SDS011;61519;60.050;18.582;2023-08-31T09:51:07;3.25;;;1.08;;
73283;SDS011;61519;60.050;18.582;2023-08-31T09:53:35;3.87;;;1.30;;
73283;SDS011;61519;60.050;18.582;2023-08-31T09:56:01;3.92;;;1.17;;
73283;SDS011;61519;60.050;18.582;2023-08-31T09:58:29;3.47;;;1.20;;
73283;SDS011;61519;60.050;18.582;2023-08-31T10:00:56;2.78;;;1.40;;
73283;SDS011;61519;60.050;18.582;2023-08-31T10:03:22;3.00;;;1.25;;
73283;SDS011;61519;60.050;18.582;2023-08-31T10:05:48;3.33;;;1.03;;
73283;SDS011;61519;60.050;18.582;2023-08-31T10:08:15;3.25;;;1.30;;
73283;SDS011;61519;60.050;18.582;2023-08-31T10:10:41;3.75;;;1.25;;
73283;SDS011;61519;60.050;18.582;2023-08-31T10:13:07;3.27;;;1.37;;
73283;SDS011;61519;60.050;18.582;2023-08-31T10:15:34;2.83;;;1.20;;
73283;SDS011;61519;60.050;18.582;2023-08-31T10:18:01;2.50;;;1.10;;
73283;SDS011;61519;60.050;18.582;2023-08-31T10:20:28;2.95;;;1.20;;
73283;SDS011;61519;60.050;18.582;2023-08-31T10:22:56;2.70;;;1.20;;
73283;SDS011;61519;60.050;18.582;2023-08-31T10:33:28;2.63;;;1.00;;
73283;SDS011;61519;60.050;18.582;2023-08-31T10:35:56;2.72;;;0.90;;
73283;SDS011;61519;60.050;18.582;2023-08-31T10:38:25;2.60;;;1.00;;
73283;SDS011;61519;60.050;18.582;2023-08-31T10:41:03;4.18;;;1.13;;
73283;SDS011;61519;60.050;18.582;2023-08-31T10:43:44;2.75;;;1.15;;
73283;SDS011;61519;60.050;18.582;2023-08-31T10:46:27;2.85;;;1.05;;
73283;SDS011;61519;60.050;18.582;2023-08-31T10:51:37;2.90;;;1.30;;
73283;SDS011;61519;60.050;18.582;2023-08-31T10:54:10;3.35;;;1.17;;
73283;SDS011;61519;60.050;18.582;2023-08-31T10:57:01;3.55;;;1.23;;
73283;SDS011;61519;60.050;18.582;2023-08-31T11:02:07;2.90;;;1.08;;
73283;SDS011;61519;60.050;18.582;2023-08-31T11:04:51;3.23;;;1.13;;
73283;SDS011;61519;60.050;18.582;2023-08-31T11:07:19;2.67;;;0.93;;
73283;SDS011;61519;60.050;18.582;2023-08-31T11:09:48;3.10;;;1.30;;
73283;SDS011;61519;60.050;18.582;2023-08-31T11:12:13;6.00;;;1.20;;
73283;SDS011;61519;60.050;18.582;2023-08-31T11:14:39;3.23;;;1.30;;
73283;SDS011;61519;60.050;18.582;2023-08-31T11:17:05;3.60;;;1.73;;
73283;SDS011;61519;60.050;18.582;2023-08-31T11:19:31;2.38;;;1.00;;
73283;SDS011;61519;60.050;18.582;2023-08-31T11:21:57;3.20;;;1.40;;
73283;SDS011;61519;60.050;18.582;2023-08-31T11:24:24;2.47;;;1.10;;
73283;SDS011;61519;60.050;18.582;2023-08-31T11:26:50;2.50;;;1.00;;
73283;SDS011;61519;60.050;18.582;2023-08-31T11:29:16;3.53;;;1.00;;
73283;SDS011;61519;60.050;18.582;2023-08-31T11:31:42;2.33;;;1.00;;
73283;SDS011;61519;60.050;18.582;2023-08-31T11:34:11;3.40;;;1.00;;
73283;SDS011;61519;60.050;18.582;2023-08-31T11:36:38;2.72;;;1.02;;
73283;SDS011;61519;60.050;18.582;2023-08-31T11:39:05;2.45;;;1.13;;
73283;SDS011;61519;60.050;18.582;2023-08-31T11:41:32;3.27;;;1.20;;
73283;SDS011;61519;60.050;18.582;2023-08-31T11:44:00;3.58;;;1.20;;
73283;SDS011;61519;60.050;18.582;2023-08-31T11:46:26;2.65;;;1.02;;
73283;SDS011;61519;60.050;18.582;2023-08-31T11:48:52;2.80;;;0.97;;
73283;SDS011;61519;60.050;18.582;2023-08-31T11:51:17;3.58;;;1.40;;
73283;SDS011;61519;60.050;18.582;2023-08-31T11:53:44;4.60;;;1.40;;
73283;SDS011;61519;60.050;18.582;2023-08-31T11:56:10;3.80;;;1.40;;
73283;SDS011;61519;60.050;18.582;2023-08-31T11:58:40;3.88;;;1.50;;
73283;SDS011;61519;60.050;18.582;2023-08-31T12:01:11;5.63;;;1.85;;
73283;SDS011;61519;60.050;18.582;2023-08-31T12:03:44;3.00;;;1.20;;
73283;SDS011;61519;60.050;18.582;2023-08-31T12:06:10;2.47;;;1.10;;
73283;SDS011;61519;60.050;18.582;2023-08-31T12:08:36;3.70;;;1.40;;
73283;SDS011;61519;60.050;18.582;2023-08-31T12:11:02;3.00;;;1.20;;
73283;SDS011;61519;60.050;18.582;2023-08-31T12:13:27;5.20;;;1.40;;
73283;SDS011;61519;60.050;18.582;2023-08-31T12:15:54;3.22;;;1.33;;
73283;SDS011;61519;60.050;18.582;2023-08-31T12:18:20;2.92;;;1.00;;
73283;SDS011;61519;60.050;18.582;2023-08-31T12:20:46;3.10;;;1.20;;
73283;SDS011;61519;60.050;18.582;2023-08-31T12:23:12;2.53;;;1.00;;
73283;SDS011;61519;60.050;18.582;2023-08-31T12:25:44;2.23;;;0.97;;
73283;SDS011;61519;60.050;18.582;2023-08-31T12:28:12;2.70;;;0.90;;
73283;SDS011;61519;60.050;18.582;2023-08-31T12:30:38;4.20;;;1.03;;
73283;SDS011;61519;60.050;18.582;2023-08-31T12:33:07;1.75;;;0.60;;
73283;SDS011;61519;60.050;18.582;2023-08-31T12:35:33;2.28;;;0.90;;
73283;SDS011;61519;60.050;18.582;2023-08-31T12:37:58;1.80;;;0.60;;
73283;SDS011;61519;60.050;18.582;2023-08-31T12:40:24;4.70;;;0.93;;
73283;SDS011;61519;60.050;18.582;2023-08-31T12:42:50;4.28;;;1.00;;
73283;SDS011;61519;60.050;18.582;2023-08-31T12:45:15;2.00;;;0.60;;
73283;SDS011;61519;60.050;18.582;2023-08-31T12:47:40;1.93;;;0.67;;
73283;SDS011;61519;60.050;18.582;2023-08-31T12:50:06;2.83;;;0.80;;
73283;SDS011;61519;60.050;18.582;2023-08-31T12:52:31;2.47;;;0.90;;
73283;SDS011;61519;60.050;18.582;2023-08-31T12:54:57;1.70;;;0.63;;
73283;SDS011;61519;60.050;18.582;2023-08-31T12:57:22;3.33;;;0.87;;
73283;SDS011;61519;60.050;18.582;2023-08-31T12:59:47;2.63;;;0.90;;
73283;SDS011;61519;60.050;18.582;2023-08-31T13:02:13;3.13;;;0.90;;
73283;SDS011;61519;60.050;18.582;2023-08-31T13:04:38;2.57;;;0.80;;
73283;SDS011;61519;60.050;18.582;2023-08-31T13:07:04;2.90;;;0.80;;
73283;SDS011;61519;60.050;18.582;2023-08-31T13:09:30;1.97;;;0.67;;
73283;SDS011;61519;60.050;18.582;2023-08-31T13:11:56;2.20;;;0.70;;
73283;SDS011;61519;60.050;18.582;2023-08-31T13:14:21;3.37;;;1.00;;
73283;SDS011;61519;60.050;18.582;2023-08-31T13:16:46;4.53;;;0.90;;
73283;SDS011;61519;60.050;18.582;2023-08-31T13:19:12;2.60;;;0.70;;
73283;SDS011;61519;60.050;18.582;2023-08-31T13:21:37;2.77;;;0.93;;
73283;SDS011;61519;60.050;18.582;2023-08-31T13:24:02;2.75;;;0.90;;
73283;SDS011;61519;60.050;18.582;2023-08-31T13:26:28;2.20;;;0.80;;
73283;SDS011;61519;60.050;18.582;2023-08-31T13:28:54;1.80;;;0.67;;
73283;SDS011;61519;60.050;18.582;2023-08-31T13:31:19;2.38;;;0.60;;
73283;SDS011;61519;60.050;18.582;2023-08-31T13:33:45;1.93;;;0.70;;
73283;SDS011;61519;60.050;18.582;2023-08-31T13:36:11;1.67;;;0.50;;
73283;SDS011;61519;60.050;18.582;2023-08-31T13:38:37;2.43;;;0.60;;
73283;SDS011;61519;60.050;18.582;2023-08-31T13:41:02;2.70;;;0.70;;
73283;SDS011;61519;60.050;18.582;2023-08-31T13:43:28;2.47;;;0.70;;
73283;SDS011;61519;60.050;18.582;2023-08-31T13:45:53;2.03;;;0.80;;
73283;SDS011;61519;60.050;18.582;2023-08-31T13:48:19;1.97;;;0.70;;
73283;SDS011;61519;60.050;18.582;2023-08-31T13:50:48;2.67;;;0.80;;
73283;SDS011;61519;60.050;18.582;2023-08-31T13:53:14;3.38;;;0.90;;
73283;SDS011;61519;60.050;18.582;2023-08-31T13:55:40;3.43;;;0.77;;
73283;SDS011;61519;60.050;18.582;2023-08-31T13:58:05;3.03;;;0.80;;
73283;SDS011;61519;60.050;18.582;2023-08-31T14:00:32;4.35;;;1.00;;
73283;SDS011;61519;60.050;18.582;2023-08-31T14:02:58;1.60;;;0.60;;
73283;SDS011;61519;60.050;18.582;2023-08-31T14:05:27;2.13;;;0.88;;
73283;SDS011;61519;60.050;18.582;2023-08-31T14:07:52;2.70;;;0.83;;
73283;SDS011;61519;60.050;18.582;2023-08-31T14:10:18;2.13;;;0.70;;
73283;SDS011;61519;60.050;18.582;2023-08-31T14:12:45;5.60;;;1.00;;
73283;SDS011;61519;60.050;18.582;2023-08-31T14:15:11;2.20;;;0.73;;
73283;SDS011;61519;60.050;18.582;2023-08-31T14:17:37;3.87;;;1.00;;
73283;SDS011;61519;60.050;18.582;2023-08-31T14:20:02;3.30;;;1.10;;
73283;SDS011;61519;60.050;18.582;2023-08-31T14:22:31;3.15;;;1.00;;
73283;SDS011;61519;60.050;18.582;2023-08-31T14:24:56;2.70;;;0.90;;
73283;SDS011;61519;60.050;18.582;2023-08-31T14:27:22;2.73;;;1.17;;
73283;SDS011;61519;60.050;18.582;2023-08-31T14:29:48;3.20;;;1.15;;
73283;SDS011;61519;60.050;18.582;2023-08-31T14:32:13;2.77;;;0.80;;
73283;SDS011;61519;60.050;18.582;2023-08-31T14:34:39;2.67;;;0.60;;
73283;SDS011;61519;60.050;18.582;2023-08-31T14:37:04;1.70;;;0.70;;
73283;SDS011;61519;60.050;18.582;2023-08-31T14:39:29;1.93;;;0.70;;
73283;SDS011;61519;60.050;18.582;2023-08-31T14:41:56;2.53;;;0.90;;
73283;SDS011;61519;60.050;18.582;2023-08-31T14:44:22;2.20;;;0.70;;
73283;SDS011;61519;60.050;18.582;2023-08-31T14:46:48;2.20;;;0.75;;
73283;SDS011;61519;60.050;18.582;2023-08-31T14:49:13;1.90;;;0.70;;